createdAt,value
2023-04-24T00:00:12.168Z,65.92
2023-04-24T00:03:41.364Z,66.12
2023-04-24T00:07:29.437Z,66.32
2023-04-24T00:11:23.515Z,66.42
2023-04-24T00:15:11.423Z,66.53
2023-04-24T00:18:59.437Z,66.41
2023-04-24T00:22:47.853Z,66.14
2023-04-24T00:26:35.816Z,66.16
2023-04-24T00:30:23.804Z,66.27
2023-04-24T00:34:11.762Z,66.51
2023-04-24T00:37:59.696Z,67.13
2023-04-24T00:41:49.751Z,67.81
2023-04-24T00:45:37.702Z,68.24
2023-04-24T00:49:25.719Z,68.48
2023-04-24T00:53:13.700Z,68.33
2023-04-24T00:57:01.762Z,68.12
2023-04-24T01:00:49.850Z,68.09
2023-04-24T01:04:39.067Z,68.31
2023-04-24T01:08:27.265Z,68.61
2023-04-24T01:12:06.545Z,69.05
2023-04-24T01:15:31.058Z,69.52
2023-04-24T01:18:53.727Z,70.27
2023-04-24T01:21:41.133Z,70.62
2023-04-24T01:25:09.895Z,70.90
2023-04-24T01:28:43.709Z,71.05
2023-04-24T01:32:23.315Z,71.05
2023-04-24T01:35:46.214Z,70.96
2023-04-24T01:39:26.533Z,70.75
2023-04-24T01:42:41.554Z,70.69
2023-04-24T01:45:58.517Z,70.48
2023-04-24T01:49:48.563Z,70.72
2023-04-24T01:53:36.493Z,70.97
2023-04-24T01:57:24.409Z,71.03
2023-04-24T02:01:12.574Z,71.00
2023-04-24T02:05:00.563Z,71.32
2023-04-24T02:08:48.528Z,71.38
2023-04-24T02:12:36.529Z,71.40
2023-04-24T02:16:24.565Z,71.32
2023-04-24T02:20:16.128Z,71.19
2023-04-24T02:24:04.063Z,71.00
2023-04-24T02:27:52.053Z,71.20
2023-04-24T02:31:40.175Z,71.42
2023-04-24T02:35:28.193Z,71.49
2023-04-24T02:39:16.311Z,71.30
2023-04-24T02:43:05.651Z,71.10
2023-04-24T02:46:55.029Z,71.33
2023-04-24T02:50:43.134Z,71.23
2023-04-24T02:54:31.127Z,70.90
2023-04-24T02:58:19.083Z,70.75
2023-04-24T03:02:10.969Z,70.46
2023-04-24T03:05:59.082Z,70.48
2023-04-24T03:09:49.544Z,70.55
2023-04-24T03:13:37.532Z,70.70
2023-04-24T03:17:25.515Z,70.83
2023-04-24T03:21:13.511Z,70.94
2023-04-24T03:25:03.947Z,71.38
2023-04-24T03:28:51.874Z,71.71
2023-04-24T03:32:41.076Z,71.99
2023-04-24T03:36:29.118Z,72.38
2023-04-24T03:40:17.109Z,72.33
2023-04-24T03:43:59.136Z,72.54
2023-04-24T03:47:47.119Z,72.43
2023-04-24T03:51:35.034Z,72.27
2023-04-24T03:55:31.397Z,71.23
2023-04-24T03:59:19.334Z,69.39
2023-04-24T04:03:07.565Z,66.82
2023-04-24T04:06:55.775Z,64.26
2023-04-24T04:10:45.369Z,61.59
2023-04-24T04:14:33.295Z,58.62
2023-04-24T04:18:21.225Z,55.54
2023-04-24T04:22:09.294Z,52.77
2023-04-24T04:26:03.412Z,50.42
2023-04-24T15:22:23.891Z,25.29
2023-04-24T15:24:50.843Z,24.42
2023-04-24T15:27:17.772Z,24.32
2023-04-24T15:29:44.903Z,24.14
2023-04-24T15:32:11.899Z,23.48
2023-04-24T15:34:38.923Z,22.72
2023-04-24T15:37:06.386Z,22.55
2023-04-24T15:39:33.447Z,22.62
2023-04-24T15:42:01.293Z,22.30
2023-04-24T15:44:28.259Z,22.51
2023-04-24T15:46:56.390Z,22.66
2023-04-24T15:49:23.379Z,22.65
2023-04-24T15:51:50.364Z,23.04
2023-04-24T15:54:17.326Z,23.46
2023-04-24T15:56:45.551Z,23.84
2023-04-24T15:59:14.436Z,24.30
2023-04-24T16:01:41.476Z,24.73
2023-04-24T16:04:08.724Z,25.08
2023-04-24T16:06:36.078Z,25.41
2023-04-24T16:09:03.762Z,25.76
2023-04-24T16:11:32.889Z,26.03
2023-04-24T16:13:59.990Z,26.62
2023-04-24T16:16:27.995Z,27.00
2023-04-24T16:18:55.586Z,27.20
2023-04-24T16:21:22.576Z,27.49
2023-04-24T16:23:49.715Z,27.74
2023-04-24T16:26:16.727Z,28.03
2023-04-24T16:28:43.718Z,28.42
2023-04-24T16:31:11.033Z,28.41
2023-04-24T16:33:37.982Z,28.54
2023-04-24T16:36:07.347Z,28.74
2023-04-24T16:38:36.004Z,28.95
2023-04-24T16:41:03.010Z,29.10
2023-04-24T16:43:30.042Z,29.07
2023-04-24T16:46:00.786Z,29.14
2023-04-24T16:48:27.831Z,29.20
2023-04-24T16:50:54.787Z,29.48
2023-04-24T16:53:21.805Z,29.86
2023-04-24T16:55:51.250Z,30.31
2023-04-24T16:58:21.882Z,30.30
2023-04-24T17:00:48.947Z,30.41
2023-04-24T17:03:17.811Z,30.60
2023-04-24T17:05:44.957Z,30.66
2023-04-24T17:08:11.900Z,30.78
2023-04-24T17:10:38.914Z,30.98
2023-04-24T17:13:05.870Z,31.22
2023-04-24T17:15:32.905Z,31.74
2023-04-24T17:18:00.204Z,33.32
2023-04-24T17:20:29.815Z,33.51
2023-04-24T17:22:57.407Z,33.38
2023-04-24T17:25:24.383Z,33.46
2023-04-24T17:27:51.356Z,33.89
2023-04-24T17:30:18.498Z,34.45
2023-04-24T17:32:45.762Z,35.17
2023-04-24T17:35:13.120Z,36.22
2023-04-24T17:37:40.071Z,37.39
2023-04-24T17:40:08.332Z,38.13
2023-04-24T17:42:38.381Z,38.59
2023-04-24T17:45:06.007Z,38.85
2023-04-24T17:47:33.178Z,39.42
2023-04-24T17:50:00.197Z,39.67
2023-04-24T17:52:27.163Z,39.28
2023-04-24T17:54:54.192Z,38.55
2023-04-24T17:57:21.198Z,38.11
2023-04-24T17:59:48.376Z,38.00
2023-04-24T18:02:15.866Z,37.70
2023-04-24T18:04:43.541Z,37.69
2023-04-24T18:07:10.886Z,38.08
2023-04-24T18:09:38.468Z,38.21
2023-04-24T18:12:05.934Z,38.32
2023-04-24T18:14:35.701Z,38.46
2023-04-24T18:17:03.125Z,38.59
2023-04-24T18:19:30.130Z,38.57
2023-04-24T18:21:58.162Z,38.76
2023-04-24T18:24:25.278Z,39.05
2023-04-24T18:26:52.354Z,39.76
2023-04-24T18:29:19.480Z,40.72
2023-04-24T18:31:46.898Z,41.24
2023-04-24T18:34:13.970Z,41.08
2023-04-24T18:36:40.986Z,41.51
2023-04-24T18:39:08.054Z,41.99
2023-04-24T18:41:35.463Z,42.32
2023-04-24T18:44:02.554Z,42.91
2023-04-24T18:46:31.759Z,43.48
2023-04-24T18:48:58.750Z,44.00
2023-04-24T18:51:26.350Z,44.46
2023-04-24T18:53:53.352Z,45.13
2023-04-24T18:56:20.829Z,45.29
2023-04-24T18:58:48.520Z,45.41
2023-04-24T19:01:15.643Z,45.73
2023-04-24T19:03:42.775Z,46.10
2023-04-24T19:06:09.826Z,46.48
2023-04-24T19:08:38.691Z,46.85
2023-04-24T19:11:05.820Z,47.09
2023-04-24T19:13:32.859Z,47.51
2023-04-24T19:15:59.971Z,47.78
2023-04-24T19:18:27.859Z,47.75
2023-04-24T19:20:55.929Z,47.86
2023-04-24T19:23:22.929Z,47.94
2023-04-24T19:25:49.950Z,48.22
2023-04-24T19:28:16.889Z,48.53
2023-04-24T19:30:43.843Z,48.94
2023-04-24T19:33:10.908Z,49.30
2023-04-24T19:35:39.203Z,49.64
2023-04-24T19:38:06.150Z,49.91
2023-04-24T19:40:33.194Z,50.26
2023-04-24T19:43:00.274Z,50.46
2023-04-24T19:45:27.240Z,51.00
2023-04-24T19:47:56.632Z,51.17
2023-04-24T19:50:24.481Z,51.23
2023-04-24T19:52:51.634Z,51.49
2023-04-24T19:55:18.781Z,51.61
2023-04-24T19:57:45.726Z,52.05
2023-04-24T20:00:13.223Z,52.57
2023-04-24T20:02:40.338Z,52.96
2023-04-24T20:05:08.143Z,53.80
2023-04-24T20:07:35.492Z,53.83
2023-04-24T20:10:02.476Z,53.58
2023-04-24T20:12:29.400Z,54.21
2023-04-24T20:14:56.492Z,54.62
2023-04-24T20:17:23.470Z,55.06
2023-04-24T20:19:50.446Z,55.45
2023-04-24T20:22:17.551Z,55.85
2023-04-24T20:24:44.671Z,56.10
2023-04-24T20:27:13.374Z,56.19
2023-04-24T20:29:40.336Z,56.33
2023-04-24T20:32:07.268Z,56.58
2023-04-24T20:34:34.292Z,56.60
2023-04-24T20:37:04.115Z,56.53
2023-04-24T20:39:31.395Z,56.83
2023-04-24T20:41:58.953Z,56.57
2023-04-24T20:44:25.920Z,55.91
2023-04-24T20:46:52.935Z,56.13
2023-04-24T20:49:20.047Z,56.53
2023-04-24T20:51:47.226Z,57.06
2023-04-24T20:54:14.209Z,57.28
2023-04-24T20:56:41.295Z,57.52
2023-04-24T20:59:08.240Z,57.91
2023-04-24T21:01:35.647Z,58.24
2023-04-24T21:04:02.740Z,58.44
2023-04-24T21:06:29.791Z,58.80
2023-04-24T21:08:56.779Z,58.91
2023-04-24T21:11:23.794Z,58.82
2023-04-24T21:13:51.071Z,58.87
2023-04-24T21:16:18.236Z,59.17
2023-04-24T21:18:45.495Z,59.47
2023-04-24T21:21:12.486Z,59.71
2023-04-24T21:23:39.584Z,59.75
2023-04-24T21:26:06.881Z,59.56
2023-04-24T21:28:33.862Z,59.56
2023-04-24T21:31:00.865Z,59.87
2023-04-24T21:33:29.050Z,60.01
2023-04-24T21:35:56.935Z,60.33
2023-04-24T21:38:25.463Z,60.50
2023-04-24T21:40:52.515Z,60.65
2023-04-24T21:43:25.334Z,60.78
2023-04-24T21:45:57.805Z,60.98
2023-04-24T21:48:24.835Z,61.10
2023-04-24T21:50:51.790Z,61.30
2023-04-24T21:53:18.749Z,61.60
2023-04-24T21:55:45.927Z,61.64
2023-04-24T21:58:13.023Z,61.87
2023-04-24T22:00:40.039Z,62.06
2023-04-24T22:03:07.128Z,62.34
2023-04-24T22:05:34.234Z,62.51
2023-04-24T22:08:02.139Z,62.52
2023-04-24T22:10:29.512Z,62.39
2023-04-24T22:12:56.596Z,62.27
2023-04-24T22:15:23.566Z,62.22
2023-04-24T22:17:52.781Z,62.45
2023-04-24T22:20:20.357Z,62.78
2023-04-24T22:22:48.364Z,63.18
2023-04-24T22:25:15.334Z,63.47
2023-04-24T22:27:42.334Z,63.60
2023-04-24T22:30:10.246Z,63.68
2023-04-24T22:32:37.484Z,63.53
2023-04-24T22:35:04.724Z,63.57
2023-04-24T22:37:31.660Z,63.48
2023-04-24T22:40:01.239Z,63.68
2023-04-24T22:42:29.184Z,64.05
2023-04-24T22:44:56.242Z,64.37
2023-04-24T22:47:23.192Z,64.60
2023-04-24T22:49:50.133Z,64.84
2023-04-24T22:52:17.230Z,64.85
2023-04-24T22:54:44.216Z,65.19
2023-04-24T22:57:12.562Z,65.33
2023-04-24T22:59:39.625Z,65.59
2023-04-24T23:02:07.458Z,65.74
2023-04-24T23:04:34.629Z,65.72
2023-04-24T23:07:01.694Z,65.89
2023-04-24T23:09:28.612Z,65.54
2023-04-24T23:11:55.722Z,65.43
2023-04-24T23:14:24.754Z,65.21
2023-04-24T23:16:51.724Z,65.36
2023-04-24T23:19:18.701Z,65.34
2023-04-24T23:21:45.769Z,65.64
2023-04-24T23:27:09.265Z,66.17
2023-04-24T23:29:36.242Z,66.68
2023-04-24T23:32:04.068Z,66.89
2023-04-24T23:34:32.460Z,67.07
2023-04-24T23:36:59.457Z,67.47
2023-04-24T23:39:26.406Z,67.69
2023-04-24T23:41:53.677Z,68.12
2023-04-24T23:44:20.722Z,68.77
2023-04-24T23:46:47.616Z,69.13
2023-04-24T23:49:15.180Z,69.29
2023-04-24T23:51:42.132Z,69.10
2023-04-24T23:54:09.095Z,68.98
2023-04-24T23:56:38.110Z,68.94
2023-04-24T23:59:05.138Z,68.80
